Shrewsbury, Massachusetts
Current Conditions -  °F | °C
As of 9:54 PM on Tuesday 21 Oct 2014 (Local Time) from KORH Reporting Station
Overcast Overcast  
Wind Chill: 52°   Ceiling: 400
Heat Index: 52°   Visibility: 10mi
Dew Point: 50°   Wind: 7mph
Humidity: 93%   Direction: 30°NNE
Pressure: 29.98"   Gusts: NA
Location:  42.3°N, 71.71°W
Report Text: KORH 220154Z AUTO 03006KT 10SM OVC004 11/10 A2998 RMK AO2 SLP154 T01110100
Loading
Personal Weather Stations






























Interactive Weather Map
Tropical Storm Tracking
New forecast layout! Learn more

10-Day Weather Forecast

Advertisements
Track Severe Weather on mobile